BAW733 LSZH-EGLL
Flight info
| Callsign | BAW733 |
|---|---|
| Flight time | N/A |
| Altitude | 38000 |
| Route | DCT VEBIT T10 TORPA DCT REKLA DCT RLP DCT ROTSI DCT KOTUN DCT NINAL DCT ABNUR DCT DIMAL DCT ALESO DCT |
| Aircraft | A319/M-SDE3FGIJ1KRWXY/LB1 |
Departure
| Time | 2026-05-07 10:09 |
|---|---|
| Airport | Zürich Airport (LSZH) |
Arrival
| Time | N/A |
|---|---|
| Airport | London Heathrow Airport (EGLL) |
| Time | Latitude | Longitude | Altitude | Speed | Heading |
|---|---|---|---|---|---|
| 2026-05-07 09:35 | 47.45431 | 8.55691 | 1407 ft | 0 kts | 186° |
| 2026-05-07 10:01 | 47.45449 | 8.55694 | 1407 ft | 3 kts | 186° |
| 2026-05-07 10:01 | 47.45468 | 8.55697 | 1407 ft | 3 kts | 186° |
| 2026-05-07 10:01 | 47.45486 | 8.55700 | 1407 ft | 3 kts | 186° |
| 2026-05-07 10:02 | 47.45502 | 8.55705 | 1408 ft | 2 kts | 154° |
| 2026-05-07 10:02 | 47.45512 | 8.55688 | 1407 ft | 2 kts | 95° |
| 2026-05-07 10:02 | 47.45512 | 8.55687 | 1407 ft | 0 kts | 95° |
| 2026-05-07 10:03 | 47.45512 | 8.55688 | 1407 ft | 1 kts | 95° |
| 2026-05-07 10:03 | 47.45511 | 8.55704 | 1407 ft | 3 kts | 95° |
| 2026-05-07 10:04 | 47.45509 | 8.55743 | 1415 ft | 5 kts | 94° |
| 2026-05-07 10:04 | 47.45514 | 8.55803 | 1407 ft | 7 kts | 63° |
| 2026-05-07 10:04 | 47.45557 | 8.55837 | 1410 ft | 7 kts | 11° |
| 2026-05-07 10:04 | 47.45607 | 8.55851 | 1412 ft | 7 kts | 17° |
| 2026-05-07 10:05 | 47.45634 | 8.55902 | 1412 ft | 6 kts | 83° |
| 2026-05-07 10:05 | 47.45631 | 8.55959 | 1413 ft | 6 kts | 95° |
| 2026-05-07 10:05 | 47.45625 | 8.56037 | 1410 ft | 9 kts | 95° |
| 2026-05-07 10:05 | 47.45618 | 8.56154 | 1418 ft | 14 kts | 96° |
| 2026-05-07 10:06 | 47.45606 | 8.56317 | 1416 ft | 19 kts | 96° |
| 2026-05-07 10:06 | 47.45590 | 8.56531 | 1416 ft | 22 kts | 96° |
| 2026-05-07 10:06 | 47.45574 | 8.56752 | 1423 ft | 21 kts | 96° |
| 2026-05-07 10:06 | 47.45560 | 8.56943 | 1420 ft | 14 kts | 95° |
| 2026-05-07 10:07 | 47.45571 | 8.56996 | 1421 ft | 0 kts | 56° |
| 2026-05-07 10:07 | 47.45578 | 8.57006 | 1422 ft | 3 kts | 44° |
| 2026-05-07 10:08 | 47.45604 | 8.57019 | 1424 ft | 6 kts | 8° |
| 2026-05-07 10:08 | 47.45663 | 8.56980 | 1424 ft | 16 kts | 291° |
| 2026-05-07 10:08 | 47.45667 | 8.56945 | 1424 ft | 0 kts | 278° |
| 2026-05-07 10:08 | 47.45676 | 8.56836 | 1422 ft | 37 kts | 276° |
| 2026-05-07 10:09 | 47.45726 | 8.56144 | 1414 ft | 96 kts | 276° |
| 2026-05-07 10:09 | 47.45816 | 8.54898 | 1391 ft | 147 kts | 276° |
| 2026-05-07 10:09 | 47.45921 | 8.53323 | 1743 ft | 154 kts | 276° |
| 2026-05-07 10:09 | 47.46043 | 8.51755 | 2274 ft | 154 kts | 278° |
| 2026-05-07 10:10 | 47.46173 | 8.50150 | 2718 ft | 163 kts | 276° |
| 2026-05-07 10:10 | 47.46254 | 8.48402 | 3102 ft | 179 kts | 265° |
| 2026-05-07 10:10 | 47.45639 | 8.46786 | 3504 ft | 194 kts | 218° |
| 2026-05-07 10:10 | 47.44430 | 8.45675 | 3866 ft | 216 kts | 216° |
| 2026-05-07 10:11 | 47.43382 | 8.43940 | 4255 ft | 241 kts | 236° |
| 2026-05-07 10:11 | 47.42385 | 8.41836 | 4791 ft | 261 kts | 236° |
| 2026-05-07 10:11 | 47.41320 | 8.39581 | 5716 ft | 267 kts | 235° |
| 2026-05-07 10:11 | 47.40252 | 8.37324 | 6681 ft | 269 kts | 236° |
| 2026-05-07 10:12 | 47.39186 | 8.35070 | 7588 ft | 273 kts | 236° |
| 2026-05-07 10:12 | 47.38249 | 8.32603 | 8481 ft | 277 kts | 243° |
| 2026-05-07 10:12 | 47.37350 | 8.30063 | 9345 ft | 281 kts | 243° |
| 2026-05-07 10:12 | 47.36438 | 8.27491 | 10182 ft | 284 kts | 243° |
| 2026-05-07 10:13 | 47.35508 | 8.24876 | 10826 ft | 296 kts | 243° |
| 2026-05-07 10:13 | 47.34511 | 8.22077 | 11076 ft | 320 kts | 243° |
| 2026-05-07 10:13 | 47.33451 | 8.19100 | 11531 ft | 333 kts | 243° |
| 2026-05-07 10:13 | 47.32369 | 8.16059 | 12215 ft | 337 kts | 243° |
| 2026-05-07 10:14 | 47.31273 | 8.12983 | 12927 ft | 341 kts | 243° |
| 2026-05-07 10:14 | 47.30542 | 8.10931 | 13393 ft | 343 kts | 243° |
| 2026-05-07 10:14 | 47.29429 | 8.07802 | 14072 ft | 346 kts | 243° |
| 2026-05-07 10:14 | 47.28323 | 8.04628 | 14763 ft | 350 kts | 246° |
| 2026-05-07 10:15 | 47.27549 | 8.01222 | 15416 ft | 353 kts | 258° |
| 2026-05-07 10:15 | 47.27292 | 7.96426 | 16265 ft | 358 kts | 274° |
| 2026-05-07 10:15 | 47.27616 | 7.92776 | 16902 ft | 362 kts | 278° |
| 2026-05-07 10:15 | 47.27980 | 7.89093 | 17537 ft | 365 kts | 278° |
| 2026-05-07 10:16 | 47.28223 | 7.86588 | 17960 ft | 367 kts | 278° |
| 2026-05-07 10:16 | 47.28582 | 7.82840 | 18583 ft | 371 kts | 278° |
| 2026-05-07 10:16 | 47.28940 | 7.79068 | 19196 ft | 374 kts | 278° |
| 2026-05-07 10:16 | 47.29299 | 7.75257 | 19797 ft | 377 kts | 278° |
| 2026-05-07 10:17 | 47.29657 | 7.71411 | 20374 ft | 381 kts | 278° |